Time;durP1;ratioP1;P1;durP2;ratioP2;P2;SDS_P1;SDS_P2;PMS_P1;PMS_P2;Temp;Humidity;BMP_temperature;BMP_pressure;BME280_temperature;BME280_humidity;BME280_pressure;Samples;Min_cycle;Max_cycle;Signal;HPM_P1;HPM_P2
2022/06/11 00:01:33;;;;;;;20.33;3.78;;;;;;;;;;5092642;28;20237;-69
2022/06/11 00:04:05;;;;;;;18.13;3.72;;;;;;;;;;5111658;28;20234;-69
2022/06/11 00:06:34;;;;;;;19.27;3.60;;;;;;;;;;5088378;27;20188;-68
2022/06/11 00:09:00;;;;;;;19.48;3.78;;;;;;;;;;5133084;27;20188;-67
2022/06/11 00:11:26;;;;;;;22.48;4.22;;;;;;;;;;5114518;27;20188;-68
2022/06/11 00:13:52;;;;;;;19.88;3.95;;;;;;;;;;5123210;27;20182;-67
2022/06/11 00:16:20;;;;;;;19.63;3.75;;;;;;;;;;5094304;28;20197;-68
2022/06/11 00:18:47;;;;;;;21.38;3.70;;;;;;;;;;5093143;27;20188;-68
2022/06/11 00:21:14;;;;;;;19.20;3.88;;;;;;;;;;5112370;28;20232;-69
2022/06/11 00:23:40;;;;;;;24.20;3.97;;;;;;;;;;5092987;28;21569;-67
2022/06/11 00:26:07;;;;;;;19.55;3.75;;;;;;;;;;5112174;28;20182;-67
2022/06/11 00:28:34;;;;;;;15.40;4.10;;;;;;;;;;5093992;28;20272;-68
2022/06/11 00:31:00;;;;;;;21.60;3.53;;;;;;;;;;5112029;27;20189;-68
2022/06/11 00:33:27;;;;;;;19.52;3.60;;;;;;;;;;5112107;28;20620;-68
2022/06/11 00:35:53;;;;;;;25.35;4.10;;;;;;;;;;5093146;28;20189;-68
2022/06/11 00:38:20;;;;;;;20.83;3.88;;;;;;;;;;5111971;28;20173;-67
2022/06/11 00:40:47;;;;;;;13.75;3.83;;;;;;;;;;5111889;28;20741;-67
2022/06/11 00:43:15;;;;;;;18.08;3.55;;;;;;;;;;5111589;28;20180;-67
2022/06/11 00:45:45;;;;;;;14.25;3.63;;;;;;;;;;5092987;28;20181;-66
2022/06/11 00:48:13;;;;;;;23.20;3.95;;;;;;;;;;5092757;28;20238;-66
2022/06/11 00:50:43;;;;;;;28.73;4.47;;;;;;;;;;5111901;28;20277;-67
2022/06/11 00:53:32;;;;;;;22.42;4.00;;;;;;;;;;5111456;28;20548;-67
2022/06/11 00:55:58;;;;;;;19.75;3.88;;;;;;;;;;5063337;28;20262;-67
2022/06/11 00:58:26;;;;;;;22.00;4.25;;;;;;;;;;5111363;28;20181;-67
2022/06/11 01:00:55;;;;;;;17.65;3.28;;;;;;;;;;5111479;28;20744;-67
2022/06/11 01:03:25;;;;;;;14.27;3.85;;;;;;;;;;5111309;28;20221;-66
2022/06/11 01:05:57;;;;;;;19.10;4.45;;;;;;;;;;5110361;27;20181;-68
2022/06/11 01:08:41;;;;;;;24.20;3.90;;;;;;;;;;5130896;27;20193;-67
2022/06/11 01:11:12;;;;;;;19.55;4.07;;;;;;;;;;5092522;28;20181;-66
2022/06/11 01:13:41;;;;;;;22.95;4.43;;;;;;;;;;5111124;28;20189;-66
2022/06/11 01:16:16;;;;;;;18.92;4.05;;;;;;;;;;5109643;28;20264;-67
2022/06/11 01:19:06;;;;;;;26.55;4.38;;;;;;;;;;5111045;28;20206;-68
2022/06/11 01:21:45;;;;;;;23.63;4.20;;;;;;;;;;5125453;27;20299;-68
2022/06/11 01:24:23;;;;;;;26.73;3.75;;;;;;;;;;5131697;27;20183;-68
2022/06/11 01:27:07;;;;;;;18.13;3.63;;;;;;;;;;5119522;27;20648;-67
2022/06/11 01:29:42;;;;;;;20.40;3.58;;;;;;;;;;5110222;27;20188;-65
2022/06/11 01:32:16;;;;;;;19.55;3.78;;;;;;;;;;5110966;28;20185;-67
2022/06/11 01:34:48;;;;;;;21.48;4.00;;;;;;;;;;5092750;28;20200;-69
2022/06/11 01:37:20;;;;;;;17.20;4.03;;;;;;;;;;5109999;28;20245;-69
2022/06/11 01:39:52;;;;;;;22.40;4.00;;;;;;;;;;5110759;28;20173;-67
2022/06/11 01:42:21;;;;;;;21.98;4.05;;;;;;;;;;5092388;28;20261;-67
2022/06/11 01:44:59;;;;;;;21.42;3.90;;;;;;;;;;5110770;28;20260;-69
2022/06/11 01:47:25;;;;;;;22.00;4.45;;;;;;;;;;5091256;28;20672;-68
2022/06/11 01:49:51;;;;;;;26.05;4.28;;;;;;;;;;5092397;28;20189;-68
2022/06/11 01:52:31;;;;;;;23.25;4.43;;;;;;;;;;5092181;28;20653;-69
2022/06/11 01:55:13;;;;;;;29.33;4.18;;;;;;;;;;5092471;28;20276;-68
2022/06/11 01:57:39;;;;;;;20.05;4.30;;;;;;;;;;5109170;28;20189;-69
2022/06/11 02:00:08;;;;;;;26.60;4.10;;;;;;;;;;5091503;28;20216;-68
2022/06/11 02:02:48;;;;;;;23.30;4.85;;;;;;;;;;5092217;28;20199;-68
2022/06/11 02:05:17;;;;;;;25.50;4.32;;;;;;;;;;5091333;28;20187;-68
2022/06/11 02:07:49;;;;;;;23.75;4.45;;;;;;;;;;5092224;28;20551;-66
2022/06/11 02:10:15;;;;;;;26.40;4.53;;;;;;;;;;5092146;28;20173;-68
2022/06/11 02:12:49;;;;;;;28.88;4.53;;;;;;;;;;5110301;28;20211;-67
2022/06/11 02:15:31;;;;;;;26.23;4.82;;;;;;;;;;5109495;28;20219;-68
2022/06/11 02:18:00;;;;;;;27.35;4.53;;;;;;;;;;5110377;28;20184;-67
2022/06/11 02:20:30;;;;;;;33.35;5.32;;;;;;;;;;5109910;28;20285;-68
2022/06/11 02:22:59;;;;;;;30.17;4.60;;;;;;;;;;5110088;28;20177;-68
2022/06/11 02:25:29;;;;;;;23.50;4.93;;;;;;;;;;5109400;28;20252;-67
2022/06/11 02:27:58;;;;;;;25.20;4.40;;;;;;;;;;5110124;28;20173;-68
2022/06/11 02:30:26;;;;;;;24.70;4.60;;;;;;;;;;5110218;28;20227;-67
2022/06/11 02:32:52;;;;;;;31.25;5.20;;;;;;;;;;5109867;28;20189;-68
2022/06/11 02:35:36;;;;;;;28.10;4.97;;;;;;;;;;5091097;28;20653;-69
2022/06/11 02:38:04;;;;;;;26.60;4.80;;;;;;;;;;5091656;28;20282;-68
2022/06/11 02:40:35;;;;;;;30.83;4.97;;;;;;;;;;5075214;28;20578;-67
2022/06/11 02:43:01;;;;;;;22.45;4.60;;;;;;;;;;5110023;28;20290;-68
2022/06/11 02:45:27;;;;;;;30.85;4.43;;;;;;;;;;5109526;28;20177;-68
2022/06/11 02:47:53;;;;;;;26.85;4.88;;;;;;;;;;5108130;28;20208;-67
2022/06/11 02:50:30;;;;;;;28.83;4.25;;;;;;;;;;5109093;28;20181;-67
2022/06/11 02:52:57;;;;;;;27.27;4.55;;;;;;;;;;5096027;28;20221;-68
2022/06/11 02:55:25;;;;;;;29.55;4.93;;;;;;;;;;5111837;28;20200;-68
2022/06/11 02:57:51;;;;;;;29.65;4.82;;;;;;;;;;5106104;28;20184;-67
2022/06/11 03:00:22;;;;;;;26.02;4.80;;;;;;;;;;5108376;28;20681;-67
2022/06/11 03:02:48;;;;;;;24.63;5.10;;;;;;;;;;5088295;28;20177;-68
2022/06/11 03:05:19;;;;;;;32.72;5.10;;;;;;;;;;5129990;28;20184;-67
2022/06/11 03:07:46;;;;;;;34.40;5.93;;;;;;;;;;5130358;28;20520;-68
2022/06/11 03:10:13;;;;;;;33.20;5.43;;;;;;;;;;5113118;27;20554;-68
2022/06/11 03:12:39;;;;;;;27.80;4.90;;;;;;;;;;5095184;27;20261;-67
2022/06/11 03:15:06;;;;;;;28.92;5.07;;;;;;;;;;5113684;28;20181;-70
2022/06/11 03:17:32;;;;;;;31.20;5.20;;;;;;;;;;5113493;28;20177;-69
2022/06/11 03:19:58;;;;;;;34.80;5.50;;;;;;;;;;5113651;28;20236;-68
2022/06/11 03:22:24;;;;;;;32.47;4.78;;;;;;;;;;5093608;28;20205;-68
2022/06/11 03:24:50;;;;;;;21.63;4.63;;;;;;;;;;5095221;28;20629;-66
2022/06/11 03:27:17;;;;;;;28.30;5.18;;;;;;;;;;5113364;28;20234;-68
2022/06/11 03:29:43;;;;;;;36.40;6.63;;;;;;;;;;5113192;27;20190;-67
2022/06/11 03:32:10;;;;;;;31.98;5.60;;;;;;;;;;5093244;28;20591;-68
2022/06/11 03:34:36;;;;;;;42.97;6.00;;;;;;;;;;5112626;28;20557;-68
2022/06/11 03:37:02;;;;;;;28.02;5.93;;;;;;;;;;5130431;27;20184;-67
2022/06/11 03:39:29;;;;;;;28.08;5.35;;;;;;;;;;5115350;27;20545;-67
2022/06/11 03:41:55;;;;;;;32.88;5.75;;;;;;;;;;5120624;27;20308;-68
2022/06/11 03:44:22;;;;;;;38.85;5.93;;;;;;;;;;5129424;27;20188;-68
2022/06/11 03:46:48;;;;;;;37.30;5.70;;;;;;;;;;5133384;27;20811;-67
2022/06/11 03:49:15;;;;;;;37.78;6.63;;;;;;;;;;5133458;27;20180;-68
2022/06/11 03:51:42;;;;;;;33.50;6.05;;;;;;;;;;5107523;28;20213;-67
2022/06/11 03:54:08;;;;;;;35.13;5.88;;;;;;;;;;5094341;28;20263;-68
2022/06/11 03:56:35;;;;;;;36.83;6.15;;;;;;;;;;5112913;28;20672;-67
2022/06/11 03:59:01;;;;;;;38.03;6.22;;;;;;;;;;5112763;28;20185;-68
2022/06/11 04:01:28;;;;;;;33.45;6.30;;;;;;;;;;5093187;27;20228;-68
2022/06/11 04:03:59;;;;;;;40.08;6.15;;;;;;;;;;5133226;27;20185;-67
2022/06/11 04:06:27;;;;;;;44.60;6.43;;;;;;;;;;5133090;27;20192;-68
2022/06/11 04:08:53;;;;;;;41.58;5.65;;;;;;;;;;5133038;27;20175;-68
2022/06/11 04:11:20;;;;;;;36.25;6.25;;;;;;;;;;5124844;27;20258;-68
2022/06/11 04:13:47;;;;;;;34.97;5.85;;;;;;;;;;5094128;28;20197;-68
2022/06/11 04:16:19;;;;;;;32.88;6.72;;;;;;;;;;5112297;28;20234;-67
2022/06/11 04:18:47;;;;;;;39.65;6.70;;;;;;;;;;5112526;28;20181;-68
2022/06/11 04:21:14;;;;;;;36.53;6.90;;;;;;;;;;5110483;28;20840;-68
2022/06/11 04:23:41;;;;;;;33.30;6.10;;;;;;;;;;5093806;28;20286;-67
2022/06/11 04:26:09;;;;;;;38.97;6.30;;;;;;;;;;5112261;28;20204;-68
2022/06/11 04:28:36;;;;;;;36.10;6.45;;;;;;;;;;5093619;28;20185;-67
2022/06/11 04:31:03;;;;;;;39.10;6.70;;;;;;;;;;5111242;28;20246;-68
2022/06/11 04:33:29;;;;;;;44.78;6.88;;;;;;;;;;5127182;27;20257;-68
2022/06/11 04:35:55;;;;;;;43.40;7.20;;;;;;;;;;5114058;27;20184;-68
2022/06/11 04:38:22;;;;;;;46.90;7.15;;;;;;;;;;5132410;27;20187;-67
2022/06/11 04:40:48;;;;;;;41.03;6.70;;;;;;;;;;5114456;27;20225;-68
2022/06/11 04:43:15;;;;;;;36.17;6.13;;;;;;;;;;5093232;28;20717;-67
2022/06/11 04:45:41;;;;;;;42.97;6.82;;;;;;;;;;5111321;27;20211;-68
2022/06/11 04:48:07;;;;;;;33.55;6.50;;;;;;;;;;5093554;28;20181;-67
2022/06/11 04:50:34;;;;;;;33.80;6.07;;;;;;;;;;5092487;28;20192;-69
2022/06/11 04:53:00;;;;;;;36.20;6.35;;;;;;;;;;5111406;28;20245;-69
2022/06/11 04:55:27;;;;;;;39.03;6.28;;;;;;;;;;5111622;28;20182;-69
2022/06/11 04:57:53;;;;;;;35.83;6.57;;;;;;;;;;5092962;28;20566;-68
2022/06/11 05:00:21;;;;;;;44.38;7.18;;;;;;;;;;5111590;27;20225;-69
2022/06/11 05:02:48;;;;;;;41.58;6.38;;;;;;;;;;5111390;28;20186;-67
2022/06/11 05:05:14;;;;;;;32.47;6.95;;;;;;;;;;5110771;28;21034;-68
2022/06/11 05:07:41;;;;;;;42.70;7.13;;;;;;;;;;5110386;28;20234;-68
2022/06/11 05:10:08;;;;;;;39.30;6.25;;;;;;;;;;5109617;27;20184;-68
2022/06/11 05:12:34;;;;;;;41.40;6.43;;;;;;;;;;5111485;28;20185;-68
2022/06/11 05:15:01;;;;;;;41.40;6.63;;;;;;;;;;5093352;28;20177;-68
2022/06/11 05:17:27;;;;;;;46.33;5.93;;;;;;;;;;5111339;28;20177;-68
2022/06/11 05:19:53;;;;;;;43.17;6.80;;;;;;;;;;5092211;28;20185;-68
2022/06/11 05:22:19;;;;;;;43.60;7.03;;;;;;;;;;5092697;28;20948;-69
2022/06/11 05:24:46;;;;;;;45.58;7.15;;;;;;;;;;5111261;28;20580;-67
2022/06/11 05:27:14;;;;;;;46.40;7.18;;;;;;;;;;5111121;28;20185;-68
2022/06/11 05:29:48;;;;;;;35.40;6.07;;;;;;;;;;5087236;28;20182;-68
2022/06/11 05:32:16;;;;;;;42.80;7.03;;;;;;;;;;5110340;28;20197;-68
2022/06/11 05:34:42;;;;;;;41.00;6.45;;;;;;;;;;5103725;27;20640;-67
2022/06/11 05:37:08;;;;;;;44.88;6.68;;;;;;;;;;5113093;27;20188;-68
2022/06/11 05:39:34;;;;;;;41.05;6.75;;;;;;;;;;5125477;27;20554;-67
2022/06/11 05:42:00;;;;;;;35.38;6.32;;;;;;;;;;5099127;27;20209;-67
2022/06/11 05:44:26;;;;;;;42.97;5.90;;;;;;;;;;5131338;27;20177;-67
2022/06/11 05:46:53;;;;;;;48.83;7.70;;;;;;;;;;5117681;27;20649;-67
2022/06/11 05:49:22;;;;;;;34.67;6.35;;;;;;;;;;5110745;28;20193;-68
2022/06/11 05:51:52;;;;;;;38.78;7.18;;;;;;;;;;5088483;28;20218;-67
2022/06/11 05:54:20;;;;;;;43.05;6.90;;;;;;;;;;5130951;27;20207;-68
2022/06/11 05:56:46;;;;;;;40.58;7.22;;;;;;;;;;5130806;27;20267;-69
2022/06/11 05:59:17;;;;;;;45.45;7.50;;;;;;;;;;5107985;28;20226;-69
2022/06/11 06:01:43;;;;;;;51.58;7.57;;;;;;;;;;5088693;28;20698;-68
2022/06/11 06:04:11;;;;;;;37.55;6.47;;;;;;;;;;5087060;28;20315;-68
2022/06/11 06:06:37;;;;;;;42.50;6.75;;;;;;;;;;5089634;28;20220;-68
2022/06/11 06:09:03;;;;;;;40.88;6.65;;;;;;;;;;5088445;28;20673;-68
2022/06/11 06:11:29;;;;;;;34.42;6.38;;;;;;;;;;5088527;28;20182;-68
2022/06/11 06:13:56;;;;;;;36.70;6.30;;;;;;;;;;5088717;28;20247;-66
2022/06/11 06:16:25;;;;;;;40.47;7.20;;;;;;;;;;5082706;28;20198;-68
2022/06/11 06:18:52;;;;;;;39.92;6.70;;;;;;;;;;5085196;28;20189;-66
2022/06/11 06:21:20;;;;;;;32.80;6.22;;;;;;;;;;5089043;28;20692;-67
2022/06/11 06:23:46;;;;;;;38.28;6.32;;;;;;;;;;5089802;28;20186;-67
2022/06/11 06:26:12;;;;;;;34.33;6.35;;;;;;;;;;5088294;28;20272;-68
2022/06/11 06:28:39;;;;;;;34.50;5.88;;;;;;;;;;5084896;28;20257;-67
2022/06/11 06:31:06;;;;;;;33.47;6.18;;;;;;;;;;5088501;28;20619;-67
2022/06/11 06:33:32;;;;;;;41.58;6.20;;;;;;;;;;5089086;28;20269;-67
2022/06/11 06:35:59;;;;;;;37.22;6.50;;;;;;;;;;5087290;28;20192;-68
2022/06/11 06:38:25;;;;;;;29.90;5.85;;;;;;;;;;5086670;28;20585;-66
2022/06/11 06:40:52;;;;;;;37.92;6.68;;;;;;;;;;5089336;28;20571;-68
2022/06/11 06:43:18;;;;;;;42.08;6.13;;;;;;;;;;5089420;28;20207;-67
2022/06/11 06:45:45;;;;;;;28.65;5.43;;;;;;;;;;5091651;28;20198;-69
2022/06/11 06:48:11;;;;;;;33.58;6.18;;;;;;;;;;5093666;28;20609;-67
2022/06/11 06:50:37;;;;;;;37.33;6.00;;;;;;;;;;5071797;28;20197;-69
2022/06/11 06:53:04;;;;;;;34.97;6.43;;;;;;;;;;5090099;28;20605;-68
2022/06/11 06:55:30;;;;;;;35.42;5.65;;;;;;;;;;5092457;28;20193;-68
2022/06/11 06:57:56;;;;;;;32.55;5.47;;;;;;;;;;5091774;28;20193;-68
2022/06/11 07:00:23;;;;;;;32.70;5.30;;;;;;;;;;5088072;28;20228;-67
2022/06/11 07:02:49;;;;;;;31.27;5.10;;;;;;;;;;5091951;28;20244;-67
2022/06/11 07:05:16;;;;;;;28.13;5.18;;;;;;;;;;5092750;28;20225;-69
2022/06/11 07:07:42;;;;;;;34.25;5.63;;;;;;;;;;5093265;28;20186;-68
2022/06/11 07:10:09;;;;;;;24.60;5.15;;;;;;;;;;5089908;28;20178;-69
2022/06/11 07:12:36;;;;;;;32.78;4.93;;;;;;;;;;5093117;28;20194;-70
2022/06/11 07:15:02;;;;;;;24.48;5.05;;;;;;;;;;5091916;28;20713;-69
2022/06/11 07:17:30;;;;;;;26.30;4.35;;;;;;;;;;5092824;28;20586;-68
2022/06/11 07:19:58;;;;;;;26.45;5.15;;;;;;;;;;5092793;28;20182;-68
2022/06/11 07:22:32;;;;;;;28.30;5.05;;;;;;;;;;5068496;28;20581;-69
2022/06/11 07:25:00;;;;;;;34.97;5.30;;;;;;;;;;5091453;28;20646;-69
2022/06/11 07:27:29;;;;;;;26.80;5.13;;;;;;;;;;5091386;28;20190;-69
2022/06/11 07:29:57;;;;;;;27.70;4.90;;;;;;;;;;5089675;28;20244;-70
2022/06/11 07:32:24;;;;;;;28.98;4.90;;;;;;;;;;5072150;28;20186;-69
2022/06/11 07:34:51;;;;;;;30.73;4.47;;;;;;;;;;5089238;28;20186;-69
2022/06/11 07:37:18;;;;;;;27.27;4.72;;;;;;;;;;5092932;28;20194;-69
2022/06/11 07:39:44;;;;;;;33.15;5.22;;;;;;;;;;5092916;28;20192;-70
2022/06/11 07:42:10;;;;;;;30.65;5.63;;;;;;;;;;5091457;28;20972;-69
2022/06/11 07:44:38;;;;;;;30.15;5.40;;;;;;;;;;5090230;28;20197;-70
2022/06/11 07:47:04;;;;;;;27.80;5.38;;;;;;;;;;5091313;28;20548;-68
2022/06/11 07:49:30;;;;;;;26.45;5.00;;;;;;;;;;5090165;28;20209;-69
2022/06/11 07:51:56;;;;;;;24.70;4.80;;;;;;;;;;5091021;28;20220;-70
2022/06/11 07:54:22;;;;;;;22.17;4.63;;;;;;;;;;5088691;28;20194;-69
2022/06/11 07:56:49;;;;;;;26.15;5.07;;;;;;;;;;5091605;28;20190;-70
2022/06/11 07:59:15;;;;;;;28.73;4.82;;;;;;;;;;5091261;28;20210;-71
2022/06/11 08:01:41;;;;;;;28.73;5.35;;;;;;;;;;5084521;28;20325;-70
2022/06/11 08:04:07;;;;;;;27.05;5.32;;;;;;;;;;5092179;28;20692;-70
2022/06/11 08:06:34;;;;;;;25.73;4.70;;;;;;;;;;5091295;28;20186;-70
2022/06/11 08:09:01;;;;;;;23.48;4.57;;;;;;;;;;5074370;28;20762;-70
2022/06/11 08:11:27;;;;;;;23.95;4.20;;;;;;;;;;5092233;28;20190;-69
2022/06/11 08:13:53;;;;;;;22.35;4.45;;;;;;;;;;5092390;28;20193;-70
2022/06/11 08:16:19;;;;;;;33.72;5.20;;;;;;;;;;5089222;28;20186;-70
2022/06/11 08:18:45;;;;;;;28.48;4.88;;;;;;;;;;5092338;28;20201;-70
2022/06/11 08:21:11;;;;;;;20.85;4.28;;;;;;;;;;5090532;28;20681;-69
2022/06/11 08:23:39;;;;;;;24.70;4.70;;;;;;;;;;5091960;28;20239;-70
2022/06/11 08:26:06;;;;;;;23.88;4.15;;;;;;;;;;5089268;28;20612;-70
2022/06/11 08:28:32;;;;;;;23.42;4.78;;;;;;;;;;5090578;28;20205;-70
2022/06/11 08:30:58;;;;;;;22.55;4.20;;;;;;;;;;5090739;28;20190;-70
2022/06/11 08:33:24;;;;;;;25.23;4.35;;;;;;;;;;5091861;28;20678;-70
2022/06/11 08:35:51;;;;;;;20.27;4.40;;;;;;;;;;5089608;28;20193;-70
2022/06/11 08:38:17;;;;;;;22.20;4.28;;;;;;;;;;5091714;28;20186;-70
2022/06/11 08:40:44;;;;;;;19.50;4.05;;;;;;;;;;5091441;28;20308;-70
2022/06/11 08:43:19;;;;;;;24.88;3.88;;;;;;;;;;5091696;28;20190;-70
2022/06/11 08:45:51;;;;;;;23.45;4.10;;;;;;;;;;5090891;28;20185;-70
2022/06/11 08:48:20;;;;;;;19.85;3.97;;;;;;;;;;5089876;28;20641;-70
2022/06/11 08:51:02;;;;;;;24.25;4.30;;;;;;;;;;5090993;28;20182;-70
2022/06/11 08:53:29;;;;;;;25.58;4.55;;;;;;;;;;5091488;28;20557;-71
2022/06/11 08:55:56;;;;;;;25.67;3.67;;;;;;;;;;5090184;28;20990;-69
2022/06/11 08:58:31;;;;;;;21.17;4.57;;;;;;;;;;5091576;28;20650;-69
2022/06/11 09:01:04;;;;;;;21.00;3.75;;;;;;;;;;5089525;28;20225;-68
2022/06/11 09:03:36;;;;;;;24.38;3.88;;;;;;;;;;5091287;28;20657;-71
2022/06/11 09:06:25;;;;;;;24.17;3.95;;;;;;;;;;5087033;28;20219;-69
2022/06/11 09:08:51;;;;;;;23.95;4.00;;;;;;;;;;5090966;28;20651;-71
2022/06/11 09:11:17;;;;;;;25.52;4.00;;;;;;;;;;5090856;28;20178;-70
2022/06/11 09:13:46;;;;;;;23.00;4.00;;;;;;;;;;5089577;28;20273;-70
2022/06/11 09:16:21;;;;;;;22.13;3.78;;;;;;;;;;5086942;28;20196;-69
2022/06/11 09:18:56;;;;;;;13.70;3.10;;;;;;;;;;5089449;28;20213;-71
2022/06/11 09:21:31;;;;;;;20.48;3.95;;;;;;;;;;5090925;28;20670;-69
2022/06/11 09:24:20;;;;;;;23.13;3.83;;;;;;;;;;5088639;28;20488;-69
2022/06/11 09:26:55;;;;;;;19.67;3.53;;;;;;;;;;5053195;28;20190;-69
2022/06/11 09:29:33;;;;;;;21.80;4.35;;;;;;;;;;5090713;28;20653;-70
2022/06/11 09:32:12;;;;;;;20.77;3.67;;;;;;;;;;5090802;28;20234;-69
2022/06/11 09:34:44;;;;;;;20.05;4.20;;;;;;;;;;5086595;28;20657;-69
2022/06/11 09:37:21;;;;;;;24.70;4.50;;;;;;;;;;5089435;28;20232;-71
2022/06/11 09:39:53;;;;;;;27.73;4.82;;;;;;;;;;5089153;28;20189;-70
2022/06/11 09:42:34;;;;;;;24.02;4.45;;;;;;;;;;5089128;28;20566;-71
2022/06/11 09:45:03;;;;;;;23.30;4.00;;;;;;;;;;5070719;28;20185;-70
2022/06/11 09:47:39;;;;;;;26.55;4.18;;;;;;;;;;5090550;28;20202;-70
2022/06/11 09:50:17;;;;;;;28.67;4.53;;;;;;;;;;5090561;28;20739;-72
2022/06/11 09:52:59;;;;;;;24.50;4.55;;;;;;;;;;5090151;28;20276;-71
2022/06/11 09:55:31;;;;;;;27.80;4.18;;;;;;;;;;5085288;28;20565;-72
2022/06/11 09:57:58;;;;;;;17.67;3.10;;;;;;;;;;5090245;28;20177;-72
2022/06/11 10:00:30;;;;;;;18.98;3.55;;;;;;;;;;5088824;28;20213;-71
2022/06/11 10:03:26;;;;;;;26.70;4.28;;;;;;;;;;5090156;28;20578;-69
2022/06/11 10:05:57;;;;;;;28.10;4.40;;;;;;;;;;5088839;28;20272;-69
2022/06/11 10:08:52;;;;;;;19.95;3.83;;;;;;;;;;5090200;28;20208;-72
2022/06/11 10:11:36;;;;;;;21.70;3.60;;;;;;;;;;5072916;28;20611;-70
2022/06/11 10:14:28;;;;;;;27.33;4.28;;;;;;;;;;5086849;28;20186;-71
2022/06/11 10:16:50;;;;;;;20.60;4.30;;;;;;;;;;5089443;28;20215;-72
2022/06/11 10:19:30;;;;;;;26.40;4.55;;;;;;;;;;5087650;28;20185;-71
2022/06/11 10:22:20;;;;;;;28.77;4.32;;;;;;;;;;5089663;28;20201;-71
2022/06/11 10:24:52;;;;;;;18.45;4.45;;;;;;;;;;5072782;28;20309;-69
2022/06/11 10:27:19;;;;;;;20.27;3.55;;;;;;;;;;5082509;28;20194;-70
2022/06/11 10:29:50;;;;;;;24.85;3.72;;;;;;;;;;5089619;28;20182;-71
2022/06/11 10:32:22;;;;;;;26.27;4.68;;;;;;;;;;5089716;28;20646;-73
2022/06/11 10:34:56;;;;;;;19.40;3.92;;;;;;;;;;5089948;28;20174;-72
2022/06/11 10:37:22;;;;;;;20.48;3.40;;;;;;;;;;5066459;28;20210;-70
2022/06/11 10:40:03;;;;;;;20.70;3.78;;;;;;;;;;5089767;28;20186;-70
2022/06/11 10:42:50;;;;;;;23.48;3.70;;;;;;;;;;5088416;28;20216;-71
2022/06/11 10:45:17;;;;;;;19.80;3.60;;;;;;;;;;5088279;28;20235;-70
2022/06/11 10:47:48;;;;;;;20.73;4.00;;;;;;;;;;5085562;28;20189;-72
2022/06/11 10:50:14;;;;;;;19.25;4.10;;;;;;;;;;5065689;28;20642;-70
2022/06/11 10:52:43;;;;;;;22.58;3.85;;;;;;;;;;5088563;28;20547;-70
2022/06/11 10:55:13;;;;;;;23.48;4.38;;;;;;;;;;5088379;28;20189;-70
2022/06/11 10:57:40;;;;;;;27.60;4.47;;;;;;;;;;5088126;28;20193;-72
2022/06/11 11:00:15;;;;;;;25.33;4.72;;;;;;;;;;5089900;28;20194;-71
2022/06/11 11:02:44;;;;;;;26.25;5.05;;;;;;;;;;5109071;28;20200;-71
2022/06/11 11:05:14;;;;;;;22.65;4.40;;;;;;;;;;5109277;28;20680;-71
2022/06/11 11:07:45;;;;;;;26.85;5.22;;;;;;;;;;5091735;28;20189;-68
2022/06/11 11:10:19;;;;;;;22.48;4.75;;;;;;;;;;5090831;28;20189;-71
2022/06/11 11:12:45;;;;;;;23.27;4.78;;;;;;;;;;5091791;28;20200;-70
2022/06/11 11:15:16;;;;;;;29.52;4.88;;;;;;;;;;5108176;28;20238;-71
2022/06/11 11:18:09;;;;;;;28.40;5.18;;;;;;;;;;5109813;28;20196;-71
2022/06/11 11:20:41;;;;;;;30.27;5.05;;;;;;;;;;5105986;28;20680;-71
2022/06/11 11:23:14;;;;;;;25.73;5.30;;;;;;;;;;5091269;28;20185;-71
2022/06/11 11:25:50;;;;;;;24.20;4.88;;;;;;;;;;5090907;28;20185;-71
2022/06/11 11:28:39;;;;;;;29.20;5.22;;;;;;;;;;5091529;28;20196;-70
2022/06/11 11:31:05;;;;;;;31.33;4.85;;;;;;;;;;5081984;28;20184;-70
2022/06/11 11:33:43;;;;;;;26.02;4.82;;;;;;;;;;5113702;28;20208;-70
2022/06/11 11:36:14;;;;;;;25.38;5.13;;;;;;;;;;5111160;27;20269;-70
2022/06/11 11:38:41;;;;;;;31.52;5.68;;;;;;;;;;5094995;28;20212;-70
2022/06/11 11:41:18;;;;;;;26.10;4.78;;;;;;;;;;5094921;28;20211;-70
2022/06/11 11:43:47;;;;;;;23.73;4.80;;;;;;;;;;5123676;27;20183;-70
2022/06/11 11:46:15;;;;;;;23.45;4.25;;;;;;;;;;5119192;27;20192;-69
2022/06/11 11:48:50;;;;;;;26.27;4.50;;;;;;;;;;5094901;28;20182;-69
2022/06/11 11:51:19;;;;;;;27.52;4.45;;;;;;;;;;5113086;27;21612;-70
2022/06/11 11:53:48;;;;;;;23.77;4.85;;;;;;;;;;5113056;28;20273;-70
2022/06/11 11:56:28;;;;;;;32.17;5.13;;;;;;;;;;5089856;28;20230;-70
2022/06/11 11:58:56;;;;;;;26.40;4.53;;;;;;;;;;5078406;28;20184;-67
2022/06/11 12:01:23;;;;;;;25.75;4.78;;;;;;;;;;5112684;28;20220;-69
2022/06/11 12:04:06;;;;;;;28.95;4.60;;;;;;;;;;5112670;28;20188;-69
2022/06/11 12:06:44;;;;;;;23.63;5.32;;;;;;;;;;5093905;27;20195;-70
2022/06/11 12:09:25;;;;;;;25.40;4.90;;;;;;;;;;5094510;28;20188;-68
2022/06/11 12:12:11;;;;;;;21.65;4.25;;;;;;;;;;5094073;28;20181;-70
2022/06/11 12:14:46;;;;;;;22.55;4.13;;;;;;;;;;5091469;27;20193;-70
2022/06/11 12:17:35;;;;;;;24.27;4.40;;;;;;;;;;5112726;28;20229;-70
2022/06/11 12:20:27;;;;;;;20.50;4.72;;;;;;;;;;5112484;28;20690;-69
2022/06/11 12:22:57;;;;;;;24.23;5.28;;;;;;;;;;5112063;28;20241;-69
2022/06/11 12:25:45;;;;;;;29.38;5.43;;;;;;;;;;5093366;28;20185;-68
2022/06/11 12:28:14;;;;;;;22.40;4.32;;;;;;;;;;5112368;27;20289;-70
2022/06/11 12:30:40;;;;;;;22.25;4.18;;;;;;;;;;5094097;28;20212;-69
2022/06/11 12:33:12;;;;;;;21.40;3.85;;;;;;;;;;5112107;28;20213;-68
2022/06/11 12:35:44;;;;;;;21.98;4.45;;;;;;;;;;5111413;28;20192;-70
2022/06/11 12:38:20;;;;;;;31.17;4.60;;;;;;;;;;5112235;27;20704;-69
2022/06/11 12:40:50;;;;;;;17.73;4.00;;;;;;;;;;5093886;28;22070;-70
2022/06/11 12:43:25;;;;;;;29.08;4.70;;;;;;;;;;5092897;28;20640;-69
2022/06/11 12:45:54;;;;;;;24.27;4.75;;;;;;;;;;5109607;28;20645;-69
2022/06/11 12:48:29;;;;;;;27.50;4.43;;;;;;;;;;5111803;28;20177;-70
2022/06/11 12:51:01;;;;;;;21.35;3.90;;;;;;;;;;5111887;28;20176;-69
2022/06/11 12:53:27;;;;;;;21.50;3.90;;;;;;;;;;5111024;28;20545;-68
2022/06/11 12:55:56;;;;;;;24.70;4.55;;;;;;;;;;5093386;28;20180;-70
2022/06/11 12:58:41;;;;;;;21.50;4.25;;;;;;;;;;5127975;27;20199;-70
2022/06/11 13:01:18;;;;;;;22.17;4.35;;;;;;;;;;5131957;27;20222;-69
2022/06/11 13:03:53;;;;;;;21.65;4.68;;;;;;;;;;5130627;27;20184;-69
2022/06/11 13:06:22;;;;;;;27.05;3.97;;;;;;;;;;5111056;28;20266;-70
2022/06/11 13:08:54;;;;;;;22.88;4.25;;;;;;;;;;5111269;28;20181;-70
2022/06/11 13:11:42;;;;;;;28.27;4.43;;;;;;;;;;5093163;28;20192;-69
2022/06/11 13:14:16;;;;;;;24.48;4.43;;;;;;;;;;5118971;27;20176;-69
2022/06/11 13:16:52;;;;;;;20.25;3.63;;;;;;;;;;5113179;27;20192;-67
2022/06/11 13:19:18;;;;;;;24.20;4.30;;;;;;;;;;5092901;28;20668;-69
2022/06/11 13:21:45;;;;;;;19.75;3.42;;;;;;;;;;5119278;27;20208;-68
2022/06/11 13:24:11;;;;;;;23.27;4.10;;;;;;;;;;5102889;27;20189;-67
2022/06/11 13:26:56;;;;;;;23.77;4.10;;;;;;;;;;5115932;27;20172;-69
2022/06/11 13:29:39;;;;;;;29.33;4.65;;;;;;;;;;5127381;27;20169;-69
2022/06/11 13:32:15;;;;;;;19.42;4.30;;;;;;;;;;5111351;27;20189;-69
2022/06/11 13:35:04;;;;;;;20.30;4.30;;;;;;;;;;5111146;27;20645;-68
2022/06/11 13:37:30;;;;;;;22.95;4.03;;;;;;;;;;5061073;28;20190;-69
2022/06/11 13:40:15;;;;;;;21.75;4.00;;;;;;;;;;5110551;28;20173;-68
2022/06/11 13:42:41;;;;;;;21.40;3.85;;;;;;;;;;5111007;28;20285;-69
2022/06/11 13:45:23;;;;;;;17.25;3.20;;;;;;;;;;5092383;28;20184;-69
2022/06/11 13:47:58;;;;;;;21.40;4.10;;;;;;;;;;5110805;28;20196;-69
2022/06/11 13:50:27;;;;;;;20.95;3.42;;;;;;;;;;5110542;28;20637;-69
2022/06/11 13:55:59;;;;;;;18.10;3.60;;;;;;;;;;5110126;28;20200;-71
2022/06/11 13:58:50;;;;;;;15.85;3.60;;;;;;;;;;5110482;28;20185;-71
2022/06/11 14:01:40;;;;;;;18.20;3.50;;;;;;;;;;5086623;28;20221;-72
2022/06/11 14:04:28;;;;;;;17.27;3.35;;;;;;;;;;5053972;28;20795;-72
2022/06/11 14:07:02;;;;;;;17.95;3.55;;;;;;;;;;5060560;28;20170;-73
2022/06/11 14:12:41;;;;;;;20.00;3.50;;;;;;;;;;5077437;28;20383;-77
2022/06/11 14:15:22;;;;;;;11.52;2.70;;;;;;;;;;5058302;28;20194;-76
2022/06/11 14:17:56;;;;;;;6.50;2.00;;;;;;;;;;5043371;28;20276;-75
2022/06/11 14:20:28;;;;;;;14.30;2.70;;;;;;;;;;5050504;28;20268;-77
2022/06/11 14:23:04;;;;;;;12.60;2.83;;;;;;;;;;5054294;28;20189;-76
2022/06/11 14:25:40;;;;;;;11.77;2.38;;;;;;;;;;5061445;28;20220;-77
2022/06/11 14:28:18;;;;;;;11.25;2.63;;;;;;;;;;5050018;28;20201;-76
2022/06/11 14:31:00;;;;;;;18.42;3.10;;;;;;;;;;5045291;28;20182;-75
2022/06/11 14:33:34;;;;;;;13.43;2.17;;;;;;;;;;5071028;28;20400;-74
2022/06/11 14:36:18;;;;;;;14.00;3.00;;;;;;;;;;5080841;28;20305;-75
2022/06/11 14:38:52;;;;;;;13.50;3.03;;;;;;;;;;5045488;28;20186;-75
2022/06/11 14:41:21;;;;;;;18.35;2.60;;;;;;;;;;5065709;28;20202;-74
2022/06/11 14:43:57;;;;;;;12.50;2.70;;;;;;;;;;5056243;28;20191;-75
2022/06/11 14:46:29;;;;;;;15.48;2.95;;;;;;;;;;5054487;28;20192;-75
2022/06/11 14:49:05;;;;;;;12.68;2.10;;;;;;;;;;5058659;28;20202;-76
2022/06/11 14:51:44;;;;;;;11.40;2.50;;;;;;;;;;5068504;28;20190;-75
2022/06/11 14:54:28;;;;;;;10.48;2.13;;;;;;;;;;5068775;28;20212;-70
2022/06/11 14:57:18;;;;;;;10.38;2.38;;;;;;;;;;5090199;28;20178;-71
2022/06/11 14:59:54;;;;;;;12.68;2.45;;;;;;;;;;5089870;28;20223;-76